Time;durP1;ratioP1;P1;durP2;ratioP2;P2;SDS_P1;SDS_P2;PMS_P1;PMS_P2;Temp;Humidity;BMP_temperature;BMP_pressure;BME280_temperature;BME280_humidity;BME280_pressure;Samples;Min_cycle;Max_cycle;Signal;HPM_P1;HPM_P2
2023/08/28 00:00:26;;;;;;;0.95;0.40;;;;;;;15.32;84.05;101261.94;4991506;28;96831;-27
2023/08/28 00:02:51;;;;;;;1.48;0.57;;;;;;;15.28;84.91;101259.47;4991275;28;100734;-28
2023/08/28 00:05:17;;;;;;;0.45;0.40;;;;;;;15.23;84.62;101247.13;4993002;28;97907;-26
2023/08/28 00:07:42;;;;;;;0.63;0.40;;;;;;;15.27;84.24;101254.97;4993119;28;96572;-26
2023/08/28 00:10:08;;;;;;;0.60;0.32;;;;;;;15.23;84.39;101253.47;4992751;28;96737;-26
2023/08/28 00:12:36;;;;;;;3.65;0.60;;;;;;;15.23;84.60;101252.59;4990832;28;98933;-27
2023/08/28 00:15:02;;;;;;;0.80;0.32;;;;;;;15.22;84.76;101257.19;4991071;28;100789;-26
2023/08/28 00:17:27;;;;;;;0.98;0.30;;;;;;;15.18;84.59;101260.25;4992398;28;96800;-27
2023/08/28 00:19:53;;;;;;;0.65;0.20;;;;;;;15.15;84.46;101247.72;4992394;28;96885;-27
2023/08/28 00:22:18;;;;;;;2.13;0.40;;;;;;;15.15;85.04;101261.34;4992691;28;97883;-27
2023/08/28 00:24:43;;;;;;;0.40;0.30;;;;;;;15.14;84.91;101264.22;4992841;28;97325;-27
2023/08/28 00:27:09;;;;;;;0.38;0.38;;;;;;;15.12;84.89;101256.13;4992613;28;96519;-27
2023/08/28 00:29:34;;;;;;;0.55;0.38;;;;;;;15.13;84.82;101263.31;4993088;28;96831;-27
2023/08/28 00:31:59;;;;;;;0.45;0.30;;;;;;;15.12;84.94;101256.13;4992327;28;99260;-26
2023/08/28 00:34:25;;;;;;;0.40;0.30;;;;;;;15.16;84.76;101264.94;4991970;28;98716;-26
2023/08/28 00:36:50;;;;;;;1.45;0.50;;;;;;;15.16;85.22;101260.38;4992197;28;96582;-26
2023/08/28 00:39:15;;;;;;;1.58;0.40;;;;;;;15.14;85.24;101256.91;4992166;28;96846;-26
2023/08/28 00:41:41;;;;;;;0.63;0.20;;;;;;;15.13;85.24;101257.84;4992165;28;99028;-27
2023/08/28 00:44:06;;;;;;;0.45;0.38;;;;;;;15.17;84.51;101255.78;4992670;28;97152;-26
2023/08/28 00:46:32;;;;;;;1.83;0.45;;;;;;;15.12;84.81;101238.91;4992010;28;96616;-27
2023/08/28 00:48:57;;;;;;;0.60;0.50;;;;;;;15.12;84.77;101238.91;4992121;28;96855;-26
2023/08/28 00:51:23;;;;;;;0.50;0.45;;;;;;;15.12;85.13;101247.94;4992088;28;97556;-26
2023/08/28 00:53:48;;;;;;;1.17;0.45;;;;;;;15.07;85.11;101244.69;4991117;28;99486;-26
2023/08/28 00:56:14;;;;;;;0.22;0.22;;;;;;;15.08;85.31;101255.47;4992360;28;96483;-26
2023/08/28 00:58:40;;;;;;;0.20;0.20;;;;;;;15.07;85.58;101255.59;4992262;28;96634;-26
2023/08/28 01:01:05;;;;;;;0.98;0.30;;;;;;;15.03;85.34;101251.34;4990213;28;101505;-27
2023/08/28 01:03:30;;;;;;;0.77;0.35;;;;;;;15.05;84.99;101250.25;4991748;28;99295;-27
2023/08/28 01:06:20;;;;;;;0.47;0.47;;;;;;;15.01;85.76;101242.41;4991927;28;96584;-27
2023/08/28 01:09:16;;;;;;;1.58;0.40;;;;;;;15.04;85.81;101245.78;4990580;28;96796;-27
2023/08/28 01:11:49;;;;;;;0.50;0.50;;;;;;;15.02;85.37;101244.16;4990403;28;101002;-28
2023/08/28 01:14:21;;;;;;;0.68;0.40;;;;;;;14.98;85.78;101243.50;4991285;28;100771;-26
2023/08/28 01:16:49;;;;;;;1.15;0.40;;;;;;;14.95;86.17;101246.47;4995272;28;96990;-27
2023/08/28 01:19:36;;;;;;;1.00;0.32;;;;;;;14.94;86.03;101238.38;4994394;28;96829;-28
2023/08/28 01:22:25;;;;;;;0.75;0.47;;;;;;;14.92;86.19;101246.69;4994079;28;100945;-27
2023/08/28 01:24:52;;;;;;;0.35;0.22;;;;;;;14.92;86.23;101237.63;4993827;28;101290;-26
2023/08/28 01:27:21;;;;;;;0.52;0.35;;;;;;;14.91;86.36;101244.94;4993513;28;96938;-26
2023/08/28 01:30:13;;;;;;;1.42;0.52;;;;;;;14.88;86.42;101238.84;4993808;28;96871;-26
2023/08/28 01:32:41;;;;;;;0.38;0.20;;;;;;;14.81;86.52;101232.97;4993795;28;100938;-27
2023/08/28 01:35:10;;;;;;;0.70;0.43;;;;;;;14.78;86.57;101223.16;4993695;28;98969;-26
2023/08/28 01:37:49;;;;;;;1.00;0.50;;;;;;;14.80;86.37;101239.41;4994777;28;96650;-27
2023/08/28 01:40:16;;;;;;;1.20;0.50;;;;;;;14.74;86.32;101229.81;4995095;28;96861;-27
2023/08/28 01:42:45;;;;;;;0.55;0.40;;;;;;;14.71;86.32;101230.03;4993707;28;101314;-26
2023/08/28 01:45:12;;;;;;;1.60;0.43;;;;;;;14.72;86.45;101245.41;4993824;28;101085;-26
2023/08/28 01:47:38;;;;;;;0.30;0.20;;;;;;;14.69;86.59;101244.78;4993656;28;96594;-26
2023/08/28 01:50:03;;;;;;;0.70;0.28;;;;;;;14.64;86.60;101232.34;4995137;28;96748;-27
2023/08/28 01:52:29;;;;;;;0.65;0.50;;;;;;;14.61;86.69;101228.94;4994360;28;98732;-26
2023/08/28 01:54:54;;;;;;;0.20;0.20;;;;;;;14.60;86.54;101235.41;4994684;28;99166;-26
2023/08/28 01:57:19;;;;;;;1.83;0.73;;;;;;;14.60;86.79;101247.16;4995079;28;96511;-26
2023/08/28 01:59:45;;;;;;;0.90;0.38;;;;;;;14.59;86.86;101248.16;4995125;28;96769;-27
2023/08/28 02:02:10;;;;;;;2.15;0.52;;;;;;;14.56;86.85;101251.13;4994497;28;97340;-27
2023/08/28 02:04:35;;;;;;;2.92;0.40;;;;;;;14.57;86.69;101252.84;4994787;28;98027;-27
2023/08/28 02:07:01;;;;;;;1.52;0.40;;;;;;;14.53;86.76;101243.09;4994746;28;96878;-26
2023/08/28 02:09:26;;;;;;;0.85;0.30;;;;;;;14.57;86.69;101249.25;4995351;28;96793;-27
2023/08/28 02:11:52;;;;;;;0.63;0.50;;;;;;;14.53;86.91;101240.38;4994880;28;97468;-26
2023/08/28 02:14:17;;;;;;;0.80;0.47;;;;;;;14.53;86.67;101231.34;4994528;28;97777;-27
2023/08/28 02:16:42;;;;;;;0.70;0.32;;;;;;;14.54;86.99;101233.09;4993868;28;96819;-26
2023/08/28 02:19:08;;;;;;;0.35;0.22;;;;;;;14.51;87.13;101215.09;4994605;28;96764;-27
2023/08/28 02:21:34;;;;;;;0.65;0.32;;;;;;;14.53;87.23;101231.34;4994429;28;97931;-26
2023/08/28 02:23:59;;;;;;;0.88;0.40;;;;;;;14.53;87.01;101231.34;4993051;28;101102;-26
2023/08/28 02:26:25;;;;;;;0.10;0.10;;;;;;;14.49;87.26;101218.91;4993172;28;96755;-27
2023/08/28 02:28:50;;;;;;;2.22;0.55;;;;;;;14.51;87.15;101214.22;4994645;28;96797;-26
2023/08/28 02:31:16;;;;;;;0.57;0.47;;;;;;;14.48;86.93;101198.09;4994337;28;97911;-27
2023/08/28 02:33:41;;;;;;;3.53;0.40;;;;;;;14.49;87.08;101203.44;4994431;28;99292;-26
2023/08/28 02:36:07;;;;;;;0.13;0.13;;;;;;;14.46;87.15;101198.19;4994288;28;96573;-27
2023/08/28 02:38:33;;;;;;;1.00;0.38;;;;;;;14.49;87.19;101214.34;4994272;28;96875;-27
2023/08/28 02:41:04;;;;;;;0.90;0.28;;;;;;;14.40;87.23;101188.63;4993416;28;99344;-27
2023/08/28 02:43:29;;;;;;;0.23;0.20;;;;;;;14.48;87.09;101214.44;4993839;28;99758;-26
2023/08/28 02:45:55;;;;;;;0.10;0.10;;;;;;;14.42;86.94;101210.31;4994321;28;96588;-27
2023/08/28 02:48:20;;;;;;;0.47;0.25;;;;;;;14.41;87.26;101223.06;4993954;28;96838;-26
2023/08/28 02:50:49;;;;;;;0.60;0.20;;;;;;;14.42;87.47;101222.09;4994063;28;97430;-27
2023/08/28 02:53:14;;;;;;;0.50;0.15;;;;;;;14.40;87.44;101207.69;4992552;28;100804;-27
2023/08/28 02:55:41;;;;;;;0.17;0.17;;;;;;;14.36;87.46;101208.03;4994074;28;96599;-27
2023/08/28 02:58:07;;;;;;;0.20;0.20;;;;;;;14.35;87.39;101209.00;4992934;28;96817;-27
2023/08/28 03:00:41;;;;;;;0.70;0.30;;;;;;;14.37;87.33;101204.31;4992318;28;99960;-27
2023/08/28 03:03:08;;;;;;;0.70;0.28;;;;;;;14.34;87.38;101193.63;4993613;28;99193;-26
2023/08/28 03:05:33;;;;;;;0.22;0.22;;;;;;;14.30;87.52;101189.38;4993387;28;96649;-27
2023/08/28 03:07:58;;;;;;;1.38;0.57;;;;;;;14.31;87.30;101185.69;4993946;28;96832;-27
2023/08/28 03:10:24;;;;;;;0.35;0.30;;;;;;;14.28;87.68;101197.69;4993851;28;97440;-26
2023/08/28 03:12:49;;;;;;;0.30;0.28;;;;;;;14.23;87.66;101200.72;4993640;28;97828;-27
2023/08/28 03:15:14;;;;;;;0.17;0.17;;;;;;;14.26;87.91;101207.81;4993506;28;96582;-26
2023/08/28 03:17:40;;;;;;;0.80;0.30;;;;;;;14.25;88.08;101214.22;4993555;28;96915;-28
2023/08/28 03:20:09;;;;;;;0.28;0.28;;;;;;;14.26;87.70;101223.31;4993681;28;97884;-27
2023/08/28 03:22:34;;;;;;;0.20;0.20;;;;;;;14.21;87.79;101220.91;4992305;28;101309;-26
2023/08/28 03:25:00;;;;;;;0.22;0.22;;;;;;;14.21;88.35;101223.63;4993646;28;96570;-27
2023/08/28 03:27:25;;;;;;;0.65;0.40;;;;;;;14.25;87.94;101230.56;4993399;28;96911;-27
2023/08/28 03:29:50;;;;;;;0.70;0.40;;;;;;;14.20;87.70;101211.84;4992917;28;97936;-27
2023/08/28 03:32:16;;;;;;;0.52;0.40;;;;;;;14.23;88.04;101229.84;4993621;28;97765;-27
2023/08/28 03:34:41;;;;;;;0.40;0.30;;;;;;;14.25;88.16;101230.56;4993516;28;96614;-27
2023/08/28 03:37:07;;;;;;;0.28;0.20;;;;;;;14.20;88.38;101230.91;4992838;28;96941;-26
2023/08/28 03:39:32;;;;;;;0.93;0.35;;;;;;;14.24;88.22;101237.03;4993437;28;97507;-26
2023/08/28 03:41:57;;;;;;;0.52;0.40;;;;;;;14.20;88.19;101228.19;4992840;28;99239;-27
2023/08/28 03:44:23;;;;;;;2.33;0.30;;;;;;;14.24;88.26;101243.34;4993107;28;96521;-26
2023/08/28 03:46:48;;;;;;;1.85;0.35;;;;;;;14.27;88.35;101242.25;4993404;28;96858;-27
2023/08/28 03:49:13;;;;;;;0.65;0.50;;;;;;;14.24;88.05;101237.88;4993173;28;97397;-27
2023/08/28 03:51:39;;;;;;;1.25;0.43;;;;;;;14.28;88.39;101244.00;4993106;28;97351;-26
2023/08/28 03:54:11;;;;;;;0.40;0.30;;;;;;;14.26;88.41;101242.38;4991447;28;96647;-27
2023/08/28 03:56:36;;;;;;;0.52;0.40;;;;;;;14.31;88.53;101264.72;4991596;28;96749;-27
2023/08/28 03:59:01;;;;;;;0.73;0.47;;;;;;;14.30;88.18;101255.69;4992877;28;97374;-27
2023/08/28 04:01:27;;;;;;;0.47;0.40;;;;;;;14.31;88.16;101248.38;4992660;28;99160;-27
2023/08/28 04:03:52;;;;;;;0.45;0.35;;;;;;;14.35;88.63;101255.31;4992804;28;96683;-27
2023/08/28 04:06:18;;;;;;;0.52;0.35;;;;;;;14.34;88.51;101259.91;4992825;28;96879;-26
2023/08/28 04:08:43;;;;;;;1.05;0.30;;;;;;;14.38;88.33;101257.84;4992474;28;99570;-27
2023/08/28 04:11:08;;;;;;;0.93;0.50;;;;;;;14.41;87.94;101253.03;4993012;28;97785;-27
2023/08/28 04:13:34;;;;;;;0.55;0.32;;;;;;;14.40;88.70;101254.03;4992753;28;96538;-26
2023/08/28 04:15:59;;;;;;;0.40;0.25;;;;;;;14.42;88.54;101257.53;4992287;28;96888;-26
2023/08/28 04:18:25;;;;;;;0.50;0.50;;;;;;;14.47;88.24;101264.47;4992323;28;97983;-27
2023/08/28 04:20:52;;;;;;;0.70;0.47;;;;;;;14.51;88.27;101282.38;4992097;28;96581;-27
2023/08/28 04:23:17;;;;;;;0.40;0.40;;;;;;;14.53;88.02;101272.22;4991280;28;96552;-27
2023/08/28 04:25:43;;;;;;;0.55;0.50;;;;;;;14.56;88.13;101274.75;4992201;28;96819;-27
2023/08/28 04:28:08;;;;;;;3.17;0.65;;;;;;;14.57;87.68;101269.22;4991138;28;98322;-27
2023/08/28 04:30:34;;;;;;;0.57;0.50;;;;;;;14.58;88.08;101267.34;4992677;28;97864;-27
2023/08/28 04:32:59;;;;;;;0.63;0.47;;;;;;;14.56;88.38;101264.75;4992755;28;96535;-27
2023/08/28 04:35:24;;;;;;;0.47;0.40;;;;;;;14.59;88.73;101271.84;4992629;28;96836;-26
2023/08/28 04:37:50;;;;;;;0.57;0.57;;;;;;;14.59;88.65;101269.13;4992522;28;97465;-27
2023/08/28 04:40:15;;;;;;;0.50;0.50;;;;;;;14.59;88.70;101271.84;4992241;28;98230;-27
2023/08/28 04:42:40;;;;;;;0.43;0.32;;;;;;;14.63;89.02;101284.25;4992087;28;96547;-27
2023/08/28 04:45:06;;;;;;;0.55;0.50;;;;;;;14.62;88.89;101286.09;4992506;28;96800;-27
2023/08/28 04:47:32;;;;;;;1.58;0.40;;;;;;;14.59;89.19;101286.34;4992263;28;97904;-28
2023/08/28 04:49:57;;;;;;;1.17;0.75;;;;;;;14.63;89.48;101298.78;4991399;28;97346;-27
2023/08/28 04:52:22;;;;;;;1.17;0.70;;;;;;;14.60;89.19;101292.66;4992447;28;96505;-26
2023/08/28 04:54:48;;;;;;;1.85;0.65;;;;;;;14.59;89.13;101297.25;4992346;28;96882;-27
2023/08/28 04:57:13;;;;;;;0.80;0.60;;;;;;;14.58;89.28;101297.34;4992215;28;97858;-27
2023/08/28 04:59:39;;;;;;;0.88;0.43;;;;;;;14.60;89.04;101303.56;4992410;28;97856;-27
2023/08/28 05:02:05;;;;;;;3.10;0.55;;;;;;;14.63;89.06;101315.13;4990797;28;97322;-27
2023/08/28 05:04:31;;;;;;;0.65;0.50;;;;;;;14.64;88.92;101316.00;4990914;28;97149;-27
2023/08/28 05:06:56;;;;;;;0.70;0.47;;;;;;;14.63;89.12;101319.69;4989120;28;99281;-27
2023/08/28 05:09:22;;;;;;;0.95;0.65;;;;;;;14.62;89.01;101312.50;4991793;28;97417;-27
2023/08/28 05:11:47;;;;;;;0.55;0.45;;;;;;;14.60;89.01;101309.88;4992001;28;96672;-27
2023/08/28 05:14:13;;;;;;;3.10;0.90;;;;;;;14.62;88.96;101310.66;4991984;28;96712;-27
2023/08/28 05:16:38;;;;;;;0.80;0.50;;;;;;;14.57;89.26;101295.59;4989967;28;100588;-27
2023/08/28 05:19:04;;;;;;;0.93;0.57;;;;;;;14.63;89.23;101304.22;4991865;28;97803;-26
2023/08/28 05:21:29;;;;;;;1.15;0.63;;;;;;;14.70;89.35;101310.09;4990638;28;96624;-30
2023/08/28 05:23:54;;;;;;;1.38;0.68;;;;;;;14.71;89.16;101311.84;4988181;28;97011;-32
2023/08/28 05:26:20;;;;;;;2.63;0.63;;;;;;;14.70;89.23;101306.50;4988210;28;97275;-27
2023/08/28 05:28:45;;;;;;;0.40;0.30;;;;;;;14.71;89.19;101300.94;4988375;28;97037;-29
2023/08/28 05:31:11;;;;;;;0.65;0.40;;;;;;;14.76;89.34;101311.53;4987902;28;96600;-30
2023/08/28 05:33:36;;;;;;;1.23;0.73;;;;;;;14.72;89.49;101299.94;4986592;28;97472;-27
2023/08/28 05:36:03;;;;;;;0.52;0.50;;;;;;;14.70;89.39;101295.59;4988449;28;97945;-27
2023/08/28 05:38:28;;;;;;;1.13;0.68;;;;;;;14.73;89.51;101296.25;4988486;28;101343;-27
2023/08/28 05:40:53;;;;;;;3.88;0.80;;;;;;;14.77;89.09;101297.75;4991692;28;96536;-27
2023/08/28 05:43:19;;;;;;;0.90;0.50;;;;;;;14.75;89.19;101294.25;4991539;28;96823;-27
2023/08/28 05:45:46;;;;;;;2.60;0.75;;;;;;;14.77;89.10;101295.03;4990019;28;100812;-27
2023/08/28 05:48:11;;;;;;;4.07;0.63;;;;;;;14.81;89.29;101304.75;4990765;28;99972;-26
2023/08/28 05:50:39;;;;;;;3.22;1.02;;;;;;;14.80;89.81;101300.28;4991697;28;96456;-26
2023/08/28 05:53:05;;;;;;;6.32;1.27;;;;;;;14.80;89.33;101293.94;4991339;28;96832;-27
2023/08/28 05:55:30;;;;;;;2.97;1.38;;;;;;;14.86;89.51;101301.69;4990998;28;97903;-27
2023/08/28 05:57:55;;;;;;;1.75;0.82;;;;;;;14.88;89.37;101296.13;4991300;28;102246;-27
2023/08/28 06:00:21;;;;;;;1.70;1.00;;;;;;;14.85;89.21;101289.91;4992580;28;97008;-26
2023/08/28 06:02:46;;;;;;;3.95;1.50;;;;;;;14.92;89.21;101295.81;4994872;28;96781;-26
2023/08/28 06:05:11;;;;;;;4.93;0.93;;;;;;;14.97;88.94;101289.97;4994910;28;97755;-26
2023/08/28 06:07:37;;;;;;;1.77;0.88;;;;;;;15.07;88.96;101296.53;4994666;28;97764;-31
2023/08/28 06:10:04;;;;;;;1.55;0.88;;;;;;;15.16;88.65;101293.13;4994649;28;96613;-27
2023/08/28 06:12:29;;;;;;;1.83;1.10;;;;;;;15.24;89.34;101287.97;4993719;28;96830;-26
2023/08/28 06:14:55;;;;;;;1.25;0.68;;;;;;;15.28;89.39;101294.09;4994624;28;98400;-26
2023/08/28 06:17:23;;;;;;;1.27;0.90;;;;;;;15.36;90.08;101297.09;4994087;28;97764;-27
2023/08/28 06:19:49;;;;;;;1.58;1.00;;;;;;;15.49;89.22;101299.78;4992679;28;97144;-27
2023/08/28 06:22:14;;;;;;;2.88;0.85;;;;;;;15.61;88.68;101293.41;4994672;28;96771;-28
2023/08/28 06:24:39;;;;;;;1.83;0.77;;;;;;;15.75;88.25;101295.09;4994188;28;97445;-27
2023/08/28 06:27:05;;;;;;;3.05;0.80;;;;;;;15.85;88.11;101293.44;4994801;28;97255;-27
2023/08/28 06:29:30;;;;;;;1.30;0.77;;;;;;;15.90;87.73;101302.13;4994602;28;96451;-28
2023/08/28 06:31:55;;;;;;;0.75;0.60;;;;;;;15.89;88.29;101300.38;4994567;28;96976;-26
2023/08/28 06:34:21;;;;;;;1.85;0.60;;;;;;;15.84;87.79;101297.13;4994346;28;97479;-27
2023/08/28 06:36:49;;;;;;;1.80;0.63;;;;;;;15.85;87.73;101309.81;4994778;28;97220;-27
2023/08/28 06:39:14;;;;;;;2.67;1.00;;;;;;;15.82;87.78;101310.03;4993829;28;96639;-27
2023/08/28 06:41:39;;;;;;;2.78;0.80;;;;;;;15.85;88.23;101319.84;4994649;28;96777;-27
2023/08/28 06:44:05;;;;;;;1.35;0.57;;;;;;;15.78;87.91;101310.38;4993741;28;97846;-27
2023/08/28 06:46:31;;;;;;;2.15;0.90;;;;;;;15.78;88.30;101310.38;4994296;28;97764;-26
2023/08/28 06:48:56;;;;;;;2.40;0.65;;;;;;;15.74;88.11;101311.63;4992853;28;96775;-27
2023/08/28 06:51:22;;;;;;;3.28;0.82;;;;;;;15.78;88.22;101311.28;4993972;28;96824;-32
2023/08/28 06:53:50;;;;;;;0.98;0.60;;;;;;;15.78;87.91;101314.00;4992209;28;100667;-26
2023/08/28 06:56:16;;;;;;;1.75;0.85;;;;;;;15.80;88.65;101320.22;4993877;28;97339;-27
2023/08/28 06:58:41;;;;;;;1.70;0.90;;;;;;;15.84;88.79;101319.00;4994171;28;96606;-26
2023/08/28 07:01:07;;;;;;;1.50;0.70;;;;;;;15.79;89.26;101313.00;4994562;28;96830;-26
2023/08/28 07:03:32;;;;;;;2.85;0.73;;;;;;;15.87;88.98;101326.06;4993872;28;97124;-27
2023/08/28 07:05:57;;;;;;;1.92;0.93;;;;;;;15.90;89.13;101317.66;4993879;28;97786;-27
2023/08/28 07:08:23;;;;;;;1.70;1.10;;;;;;;15.88;89.52;101309.56;4993306;28;96643;-27
2023/08/28 07:10:48;;;;;;;1.27;0.73;;;;;;;15.91;89.11;101323.00;4993947;28;96676;-26
2023/08/28 07:13:14;;;;;;;3.58;0.90;;;;;;;15.97;88.75;101318.03;4993282;28;97370;-26
2023/08/28 07:15:42;;;;;;;1.50;1.08;;;;;;;16.02;88.71;101326.78;4992790;28;97640;-27
2023/08/28 07:18:07;;;;;;;1.15;0.70;;;;;;;16.12;88.43;101322.34;4993922;28;96730;-28
2023/08/28 07:20:34;;;;;;;0.75;0.70;;;;;;;16.17;88.00;101319.25;4993734;28;96746;-27
2023/08/28 07:22:59;;;;;;;1.42;0.95;;;;;;;16.22;87.73;101319.75;4991954;28;100946;-27
2023/08/28 07:25:25;;;;;;;0.82;0.65;;;;;;;16.29;88.20;101327.34;4994003;28;97810;-27
2023/08/28 07:27:51;;;;;;;2.38;1.00;;;;;;;16.33;87.79;101328.88;4993777;28;96588;-28
2023/08/28 07:30:17;;;;;;;1.30;0.93;;;;;;;16.37;86.86;101323.16;4992095;28;96712;-27
2023/08/28 07:32:42;;;;;;;2.08;1.30;;;;;;;16.41;86.77;101316.47;4992875;28;98006;-27
2023/08/28 07:35:08;;;;;;;1.40;0.75;;;;;;;16.51;87.09;101328.41;4993295;28;97791;-26
2023/08/28 07:37:34;;;;;;;3.00;0.75;;;;;;;16.60;87.16;101333.16;4991918;28;96811;-26
2023/08/28 07:40:00;;;;;;;1.90;0.82;;;;;;;16.61;86.83;101321.22;4992078;28;96904;-27
2023/08/28 07:42:25;;;;;;;2.15;0.85;;;;;;;16.76;86.20;101328.22;4993209;28;97662;-27
2023/08/28 07:44:50;;;;;;;1.60;1.13;;;;;;;17.10;86.64;101325.50;4991782;28;98099;-27
2023/08/28 07:47:16;;;;;;;0.80;0.70;;;;;;;17.29;84.39;101329.47;4993425;28;96643;-27
2023/08/28 07:49:43;;;;;;;2.97;0.95;;;;;;;17.50;82.92;101332.31;4992115;28;96863;-30
2023/08/28 07:52:08;;;;;;;1.25;0.68;;;;;;;17.73;81.59;101320.31;4991372;28;100845;-27
2023/08/28 07:54:34;;;;;;;2.85;0.90;;;;;;;17.87;81.29;101323.78;4993036;28;97645;-27
2023/08/28 07:56:59;;;;;;;6.38;1.00;;;;;;;18.19;80.99;101321.88;4992432;28;96608;-26
2023/08/28 07:59:24;;;;;;;0.98;0.60;;;;;;;18.59;78.87;101325.75;4993234;28;96889;-27
2023/08/28 08:01:50;;;;;;;1.02;0.80;;;;;;;18.93;77.37;101331.94;4992791;28;98946;-27
2023/08/28 08:04:15;;;;;;;5.15;0.80;;;;;;;19.26;76.89;101324.41;4992831;28;99197;-26
2023/08/28 08:06:40;;;;;;;1.58;0.70;;;;;;;19.57;75.56;101335.31;4992931;28;96771;-27
2023/08/28 08:09:06;;;;;;;0.88;0.75;;;;;;;19.81;73.57;101324.00;4992947;28;96823;-27
2023/08/28 08:11:32;;;;;;;0.85;0.57;;;;;;;20.03;73.67;101329.19;4992754;28;98439;-27
2023/08/28 08:13:58;;;;;;;1.33;0.52;;;;;;;20.26;73.50;101334.41;4993048;28;97317;-28
2023/08/28 08:16:24;;;;;;;0.85;0.60;;;;;;;20.37;71.93;101335.13;4990646;28;96999;-26
2023/08/28 08:18:49;;;;;;;0.60;0.47;;;;;;;20.51;72.22;101332.94;4990928;28;96912;-27
2023/08/28 08:21:15;;;;;;;0.73;0.52;;;;;;;20.63;69.50;101351.06;4992037;28;97251;-26
2023/08/28 08:23:41;;;;;;;0.70;0.50;;;;;;;20.81;70.96;101340.16;4989559;28;100741;-28
2023/08/28 08:26:07;;;;;;;0.60;0.43;;;;;;;20.89;70.28;101332.00;4991110;28;97811;-26
2023/08/28 08:28:32;;;;;;;0.95;0.63;;;;;;;21.12;70.54;101332.50;4992283;28;96856;-27
2023/08/28 08:30:57;;;;;;;0.88;0.57;;;;;;;21.24;67.38;101324.03;4992492;28;98034;-27
2023/08/28 08:33:23;;;;;;;1.23;0.40;;;;;;;21.25;67.66;101340.41;4992478;28;97642;-26
2023/08/28 08:35:48;;;;;;;3.20;0.52;;;;;;;20.99;67.15;101335.59;4992218;28;96588;-27
2023/08/28 08:38:14;;;;;;;0.30;0.20;;;;;;;21.06;68.54;101321.22;4992685;28;96896;-26
2023/08/28 08:40:40;;;;;;;0.52;0.30;;;;;;;20.76;68.61;101321.31;4990033;28;99232;-27
2023/08/28 08:43:06;;;;;;;0.50;0.47;;;;;;;20.53;68.00;101319.91;4988213;28;100796;-28
2023/08/28 08:45:35;;;;;;;0.28;0.22;;;;;;;20.47;68.18;101323.22;4989328;28;97044;-29
2023/08/28 08:48:01;;;;;;;0.75;0.25;;;;;;;20.31;67.54;101332.97;4988450;28;97306;-28
2023/08/28 08:50:28;;;;;;;3.22;0.38;;;;;;;20.38;67.70;101336.00;4989891;28;97457;-27
2023/08/28 08:52:57;;;;;;;0.63;0.20;;;;;;;20.09;68.93;101330.50;4988214;28;100748;-27
2023/08/28 08:55:49;;;;;;;1.42;0.40;;;;;;;19.86;70.67;101340.91;4989768;28;96768;-27
2023/08/28 08:58:16;;;;;;;0.13;0.13;;;;;;;19.61;70.55;101334.88;4990893;28;96730;-27
2023/08/28 09:00:45;;;;;;;0.30;0.30;;;;;;;19.60;71.56;101333.16;4991933;28;98090;-27
2023/08/28 09:03:12;;;;;;;1.70;0.40;;;;;;;20.03;70.10;101322.84;4990963;28;100929;-26
2023/08/28 09:05:38;;;;;;;3.40;0.68;;;;;;;20.56;68.06;101331.50;4992648;28;96911;-26
2023/08/28 09:08:07;;;;;;;1.08;0.40;;;;;;;20.96;67.20;101327.63;4992289;28;96452;-26
2023/08/28 09:10:33;;;;;;;0.45;0.38;;;;;;;20.78;67.32;101315.66;4991666;28;97553;-27
2023/08/28 09:12:59;;;;;;;0.35;0.28;;;;;;;20.54;68.55;101321.63;4990350;28;100862;-27
2023/08/28 09:15:25;;;;;;;1.65;0.40;;;;;;;20.33;68.61;101324.53;4990270;28;96664;-27
2023/08/28 09:17:52;;;;;;;0.88;0.30;;;;;;;20.09;68.96;101322.25;4991823;28;97003;-26
2023/08/28 09:20:19;;;;;;;0.30;0.30;;;;;;;19.91;69.96;101331.22;4990522;28;99330;-27
2023/08/28 09:22:49;;;;;;;0.57;0.43;;;;;;;19.63;70.93;101330.13;4990273;28;103963;-26
2023/08/28 09:25:19;;;;;;;0.47;0.45;;;;;;;19.53;71.42;101345.75;4990626;28;96538;-26
2023/08/28 09:27:46;;;;;;;0.50;0.35;;;;;;;19.39;71.24;101346.13;4992174;28;96531;-27
2023/08/28 09:30:36;;;;;;;0.60;0.20;;;;;;;19.33;71.67;101343.94;4990235;28;101296;-26
2023/08/28 09:33:07;;;;;;;0.65;0.35;;;;;;;19.29;71.62;101352.44;4990557;28;100780;-27
2023/08/28 09:35:40;;;;;;;0.40;0.30;;;;;;;19.24;72.20;101349.25;4992802;28;96612;-26
2023/08/28 09:38:06;;;;;;;0.45;0.30;;;;;;;19.20;72.34;101347.78;4993654;28;96946;-27
2023/08/28 09:40:37;;;;;;;0.80;0.50;;;;;;;19.26;71.10;101341.75;4993697;28;101144;-26
2023/08/28 09:43:16;;;;;;;2.58;0.43;;;;;;;19.74;71.03;101337.44;4993575;28;100912;-26
2023/08/28 09:45:44;;;;;;;3.03;0.57;;;;;;;20.00;69.59;101340.50;4995238;28;96437;-26
2023/08/28 09:48:10;;;;;;;0.82;0.50;;;;;;;20.50;67.94;101347.72;4993681;28;96875;-27
2023/08/28 09:50:38;;;;;;;0.77;0.30;;;;;;;20.92;66.11;101341.84;4993535;28;100879;-27
2023/08/28 09:53:11;;;;;;;0.40;0.30;;;;;;;21.28;66.30;101342.00;4993711;28;102580;-26
2023/08/28 09:55:45;;;;;;;0.70;0.30;;;;;;;21.66;64.96;101346.47;4993450;28;96615;-27
2023/08/28 09:58:11;;;;;;;1.20;0.43;;;;;;;21.97;64.21;101340.59;4993593;28;96786;-27
2023/08/28 10:00:41;;;;;;;1.13;0.50;;;;;;;22.14;63.08;101350.75;4994128;28;99546;-26
2023/08/28 10:03:09;;;;;;;1.35;0.55;;;;;;;22.31;62.15;101339.91;4994483;28;99218;-26
2023/08/28 10:05:37;;;;;;;0.40;0.30;;;;;;;22.52;61.86;101332.13;4993313;28;96615;-27
2023/08/28 10:08:07;;;;;;;0.63;0.30;;;;;;;22.72;62.08;101335.59;4993637;28;96916;-27
2023/08/28 10:10:33;;;;;;;0.85;0.40;;;;;;;23.01;60.94;101326.13;4994471;28;98043;-26
2023/08/28 10:13:02;;;;;;;0.43;0.20;;;;;;;23.18;59.60;101333.47;4994536;28;97936;-26
2023/08/28 10:15:29;;;;;;;0.15;0.15;;;;;;;23.37;60.00;101328.72;4993086;28;96670;-26
2023/08/28 10:17:56;;;;;;;0.63;0.30;;;;;;;23.65;57.93;101332.97;4994501;28;96928;-28
2023/08/28 10:20:22;;;;;;;0.30;0.30;;;;;;;23.49;58.96;101327.38;4993038;28;101158;-28
2023/08/28 10:22:49;;;;;;;0.35;0.30;;;;;;;23.12;58.64;101331.38;4993026;28;101036;-27
2023/08/28 10:25:16;;;;;;;0.15;0.10;;;;;;;22.76;59.69;101328.69;4992652;28;97780;-26
2023/08/28 10:27:43;;;;;;;0.95;0.30;;;;;;;22.50;59.80;101336.09;4993028;28;97098;-27
2023/08/28 10:30:10;;;;;;;0.73;0.25;;;;;;;22.34;60.94;101334.94;4994285;28;98132;-27
2023/08/28 10:32:36;;;;;;;0.35;0.20;;;;;;;22.19;62.49;101323.56;4994239;28;99775;-26
2023/08/28 10:35:02;;;;;;;0.32;0.22;;;;;;;22.05;62.02;101344.31;4993109;28;96718;-26
2023/08/28 10:37:30;;;;;;;0.40;0.30;;;;;;;21.82;62.64;101348.53;4994358;28;96962;-27
2023/08/28 10:39:57;;;;;;;0.45;0.30;;;;;;;21.52;61.78;101341.47;4992547;28;101233;-26
2023/08/28 10:42:23;;;;;;;0.93;0.30;;;;;;;21.23;64.00;101349.84;4994498;28;97938;-27
2023/08/28 10:44:49;;;;;;;0.03;0.03;;;;;;;20.91;64.91;101341.00;4992795;28;96718;-27
2023/08/28 10:47:20;;;;;;;0.73;0.20;;;;;;;20.73;65.73;101343.63;4991837;28;96723;-26
2023/08/28 10:49:45;;;;;;;1.13;0.40;;;;;;;20.62;66.26;101359.44;4991996;28;101485;-27
2023/08/28 10:52:11;;;;;;;0.20;0.20;;;;;;;20.45;66.83;101361.94;4993991;28;97994;-26
2023/08/28 10:54:38;;;;;;;0.85;0.30;;;;;;;20.32;66.73;101358.59;4993859;28;96538;-26
2023/08/28 10:57:10;;;;;;;0.35;0.30;;;;;;;20.18;67.48;101354.38;4992635;28;96691;-27
2023/08/28 10:59:43;;;;;;;2.47;0.80;;;;;;;20.14;67.80;101359.31;4992254;28;101239;-26
2023/08/28 11:02:09;;;;;;;1.05;0.57;;;;;;;20.12;67.77;101353.09;4993759;28;97534;-28
2023/08/28 11:04:36;;;;;;;1.00;0.40;;;;;;;20.12;67.75;101357.72;4992656;28;96698;-27
2023/08/28 11:07:02;;;;;;;1.05;0.35;;;;;;;20.05;68.25;101362.94;4992705;28;96945;-26
2023/08/28 11:09:28;;;;;;;1.17;0.40;;;;;;;20.03;68.50;101366.84;4992189;28;101438;-27
2023/08/28 11:11:59;;;;;;;0.40;0.30;;;;;;;20.03;67.86;101373.22;4993749;28;97801;-26
2023/08/28 11:14:38;;;;;;;0.20;0.20;;;;;;;19.91;68.40;101366.97;4993382;28;96526;-28
2023/08/28 11:17:07;;;;;;;0.80;0.50;;;;;;;19.97;68.52;101367.41;4991873;28;96890;-27
2023/08/28 11:19:32;;;;;;;2.08;0.32;;;;;;;19.94;68.51;101363.06;4993542;28;97417;-26
2023/08/28 11:22:03;;;;;;;0.45;0.30;;;;;;;19.96;68.29;101354.69;4993892;28;97243;-27